Umut Omur

Olheiro-Chefe - Gaziantep
3 Abr 2027
Sábado
Processo

Personalidade

Adaptabilidade (19) Ambição (19) Controvérsia (11) Lealdade (7) Pressão (13) Profissionalismo (7) Espírito Esportivo (13) Temperamento (9)

Perfil

Estilo de Treinamento Democrático
Licença Continental C
Determinação 12
Gestão de Pessoas 4
Motivação 7
Disciplina 9
Satisfação no Trabalho
50%
Fadiga
0%
Função Olheiro-Chefe
Salário 40.0K p/s
Contrato 14.03.2030

Desempenho

Comportamento Normal
Eficácia do Treinamento
13%
Desenvolvimento do Jogador
40%
Prevenção de Lesões
35%
Implementação Tática
20%

Eventos Recentes

Avaliou um jogador agora
Participou de uma reunião de recrutamento agora
Recomendou um alvo de transferência agora
Avaliou um jogador 7d atrás
Avaliou um jogador 7d atrás
Avaliou um jogador 7d atrás
Avaliou um jogador 7d atrás
Observou uma partida 7d atrás

Monitorando agora

157
Jogador Clube Status Habilidade Confiança Observado Última observação Último voto
Milan Vidakov Radnicki 1923 Ativo 109 / 98 40% 1 02.04.2027 -
Jerónimo Porto Lapegüe Slask Ativo 116 / 116 40% 1 02.04.2027 -
Marcos Cuenca Zaragoza Ativo 114 / 110 40% 1 01.04.2027 -
Diego Valencia Gornik Leczna Ativo 123 / 116 40% 1 01.04.2027 -
Simone Ianesi Pianese Ativo 103 / 97 40% 1 29.03.2027 -
Tomáš Zlatohlávek Teplice Ativo 114 / 110 40% 1 29.03.2027 -
Kane Drummond Oldham Athletic Ativo 95 / 90 40% 1 26.03.2027 -
Peter Itodo Metalist Ativo 113 / 106 40% 1 26.03.2027 -
Bogdan Petrović TSC Ativo 108 / 108 40% 2 25.03.2027 -
Jan Hurtado Volos NPS Ativo 118 / 112 40% 1 25.03.2027 -
Ekain Orobengoa Real Sociedad Ativo 108 / 103 40% 2 24.03.2027 -
Ramadan Mohsen Zamalek Ativo 142 / 121 40% 1 24.03.2027 -
Negueba Mirassol Ativo 113 / 114 40% 1 23.03.2027 -
Matyáš Vojta Sparta Prague Ativo 112 / 115 40% 1 23.03.2027 -
Yehor Hunichev Feniks Ativo 101 / 98 40% 1 17.03.2027 -
Louis Appéré Cambridge United Ativo 89 / 92 40% 1 17.03.2027 -
Danylo Honcharuk Probiy Ativo 98 / 94 40% 1 16.03.2027 -
Khaled Al-Nabris Ismaily Ativo 96 / 95 40% 1 16.03.2027 -
Bienvenue Kanakimana Zbrojovka Brno Ativo 108 / 119 40% 4 14.03.2027 -
Moha Karpaty Ativo 114 / 127 40% 2 14.03.2027 -
Dejan Zukić Vojvodina Ativo 120 / 119 40% 3 12.03.2027 -
Freddie Draper Lincoln City Ativo 116 / 112 40% 1 12.03.2027 -
Mateo Fernández Angusht Ativo 88 / 84 40% 1 12.03.2027 -
Damián Puebla Orenburg Ativo 128 / 120 40% 3 10.03.2027 -
Doğucan Haspolat Westerlo Ativo 121 / 128 40% 1 10.03.2027 -
Léo Pereira CSKA Sofia Ativo 130 / 123 40% 4 09.03.2027 -
Milan Vukotić Partizan Ativo 114 / 132 40% 5 09.03.2027 -
Mohamed Ali Ben Romdhane Al Ahly Ativo 140 / 117 40% 4 08.03.2027 -
Pablo Rodríguez Lech Ativo 116 / 130 40% 4 08.03.2027 -
Rodrigo Conceição Jagiellonia Ativo 130 / 123 40% 5 07.03.2027 -
Luis Palma Lech Ativo 132 / 121 40% 1 07.03.2027 -
Michal Kohút Banik Ostrava Ativo 132 / 127 40% 2 06.03.2027 -
Thiago Nuss OFI Ativo 120 / 121 40% 3 06.03.2027 -
Jack Currie Oxford United Ativo 115 / 116 40% 6 05.03.2027 -
İbrahim Kaya Alanyaspor Ativo 120 / 129 40% 1 05.03.2027 -
José Bica Leixões Ativo 112 / 100 40% 1 03.03.2027 -
Emanuele Pecorino Catanzaro Ativo 119 / 114 40% 1 03.03.2027 -
Anderson Arroyo Rubin Ativo 109 / 122 40% 1 03.03.2027 -
Ibrahim Bayesh Al Dhafra Ativo 138 / 123 40% 4 01.03.2027 -
Eddie Salcedo OFI Ativo 108 / 125 40% 1 01.03.2027 -
Ibrahim Tarek Masr El Makasa Ativo 112 / 124 40% 2 27.02.2027 -
Giannis Kosti Levadiakos Ativo 123 / 113 40% 1 26.02.2027 -
Mahmoud Bentayg Zamalek Ativo 126 / 127 40% 1 25.02.2027 -
Filip Kubala Banik Ostrava Ativo 122 / 119 40% 5 24.02.2027 -
Riyad Idrissi Cagliari Ativo 125 / 131 40% 1 24.02.2027 -
Noah Fadiga Aris Thessaloniki Ativo 109 / 115 40% 1 23.02.2027 -
Michal Sadílek Slavia Prague Ativo 131 / 122 40% 1 22.02.2027 -
Martim Cunha Porto Ativo 95 / 98 40% 2 20.02.2027 -
Luca Barani Forli Ativo 86 / 95 40% 1 20.02.2027 -
Mohamed Cherif Haïdara SonderjyskE Ativo 105 / 118 40% 2 17.02.2027 -
Elie N'Gatta Sochaux Ativo 86 / 97 40% 2 17.02.2027 -
Tornike Morchiladze HNK Rijeka Ativo 119 / 124 40% 1 17.02.2027 -
Luther Ngcobo Ajax Cape Town Ativo 102 / 94 40% 2 16.02.2027 -
Jiří Boula Banik Ostrava Ativo 131 / 119 40% 2 14.02.2027 -
Jakub Jendryka Ruch Ativo 76 / 87 40% 1 14.02.2027 -
Vanja Dragojević Partizan Ativo 118 / 119 40% 1 14.02.2027 -
Tiago Freitas Benfica Ativo 115 / 109 40% 2 11.02.2027 -
Thapelo Maseko FC Copenhagen Ativo 123 / 131 40% 3 11.02.2027 -
Tiago Manso Kifisia Ativo 114 / 111 40% 2 11.02.2027 -
Mauricio Amaro Atlanta United FC Ativo 117 / 124 40% 1 11.02.2027 -
Dijon Kameri Cracovia Ativo 123 / 124 40% 5 09.02.2027 -
Angelo Gattermayer Wolfsberger AC Ativo 113 / 115 40% 3 09.02.2027 -
Emil Ceïde Rosenborg Ativo 130 / 135 40% 1 08.02.2027 -
Kristian Arnstad AGF Ativo 117 / 136 40% 2 07.02.2027 -
Andrei Cordea CFR Cluj Ativo 120 / 117 40% 1 05.02.2027 -
Stanislav Ivanov Arda Ativo 114 / 114 40% 2 02.02.2027 -
Andrea Ciofi Cesena Ativo 117 / 119 40% 4 02.02.2027 -
Kacper Urbański Gornik Zabrze Ativo 118 / 118 40% 3 01.02.2027 -
Simphiwe Selepe Orlando Pirates Ativo 118 / 118 40% 2 01.02.2027 -
Veldin Hodža Rubin Ativo 117 / 133 40% 1 01.02.2027 -
Arjan Malić Sturm Graz Ativo 112 / 131 40% 1 01.02.2027 -
Juho Lähteenmäki FC Nordsjaelland Ativo 131 / 145 40% 3 31.01.2027 -
Gonçalo Oliveira Benfica Ativo 117 / 114 40% 1 31.01.2027 -
Njegoš Petrović Vojvodina Ativo 112 / 124 40% 2 29.01.2027 -
Ibrahim Cissoko Zwolle Ativo 116 / 114 40% 2 27.01.2027 -
Ali Saleh Al Wasl Ativo 107 / 119 40% 1 27.01.2027 -
Nahuel Ulariaga Al Ahli Ativo 117 / 115 40% 1 26.01.2027 -
Alan Lescano Argentinos Juniors Ativo 140 / 141 40% 1 25.01.2027 -
Sergio Lozano Jagiellonia Ativo 120 / 129 40% 5 24.01.2027 -
Ki-Jana Hoever Sparta Prague Ativo 136 / 133 40% 1 23.01.2027 -
James Eto'o CSKA Sofia Ativo 125 / 129 40% 1 22.01.2027 -
Juan Bezerra Zamalek Ativo 109 / 106 40% 2 21.01.2027 -
Matěj Ryneš Sparta Prague Ativo 114 / 126 40% 1 20.01.2027 -
Seedy Jatta Sturm Graz Ativo 126 / 130 40% 2 19.01.2027 -
Lucan Louw AS Police Ativo 96 / 87 40% 1 19.01.2027 -
Mpho Khethang AS Police Ativo 70 / 96 40% 1 17.01.2027 -
Runar Norheim FC Nordsjaelland Ativo 113 / 131 40% 1 17.01.2027 -
Ali Soliman Masr El Makasa Ativo 119 / 133 40% 3 12.01.2027 -
João Mendes Kayserispor Ativo 108 / 119 55% 1 11.01.2027 -
Santiago Fernández Talleres Ativo 128 / 121 40% 1 10.01.2027 -
Savely Nikiforov Zenit Ativo 89 / 90 40% 1 08.01.2027 -
Thiago Silvero River Plate Ativo 126 / 124 40% 1 07.01.2027 -
Kaick FC Dallas Ativo 99 / 113 40% 2 05.01.2027 -
Milan Roganović Partizan Rejeitado 100 / 120 40% 1 02.01.2027 Mais informações
Dion Beljo Dinamo Zagreb Rejeitado 131 / 132 64% 1 01.01.2027 Rejeitar
Razvan Puscas Astra Perdido 115 / 115 66% 1 01.01.2027 Aprovar
Ciprian Coman Pandurii Perdido 114 / 125 66% 1 01.01.2027 -
George Puşcaş Dinamo Bucharest Relatório pronto 120 / 120 66% 1 01.01.2027 Aprovar
Ştefan Baiaram Universitatea Craiova Ativo 131 / 114 40% 2 30.12.2026 -
Tamar Svetlin Korona Ativo 123 / 118 40% 1 30.12.2026 -
Victor Bak FC Midtjylland Rejeitado 138 / 121 40% 3 28.12.2026 Rejeitar
Simen Bolkan Nordli Rosenborg Ativo 113 / 130 40% 1 28.12.2026 -
Alexey Mironov Rostov Ativo 112 / 117 40% 1 27.12.2026 -
Bartosz Slisz Brondby Ativo 135 / 136 40% 2 17.12.2026 -
Fernando Martínez Central Córdoba SdE Ativo 128 / 111 40% 1 15.12.2026 -
Ramiro Ruiz Rodríguez Atlético Tucumán Ativo 130 / 129 40% 1 15.12.2026 -
Justo Giani Universidad Catolica Ativo 113 / 117 40% 1 14.12.2026 -
Tiago Dantas HNK Rijeka Rejeitado 131 / 121 40% 1 08.12.2026 Mais informações
Franco Watson Lanús Rejeitado 128 / 116 40% 2 07.12.2026 Mais informações
Josip Mitrović Slaven Belupo Ativo 121 / 112 40% 1 07.12.2026 -
Ivan Shilenok Zenit Ativo 96 / 103 40% 1 07.12.2026 Mais informações
Leandro Martins Benfica Ativo 94 / 97 40% 1 07.12.2026 Mais informações
Conrad Wallem Valerenga Ativo 129 / 140 40% 2 23.11.2026 -
Sead Hakšabanović Malmo FF Ativo 104 / 126 40% 1 17.11.2026 -
Matías Pellegrini Vélez Ativo 120 / 117 40% 1 17.11.2026 -
Maxim Balakhonov Dinamo Moscow Ativo 83 / 85 40% 1 17.11.2026 -
Matías Galarza Talleres Ativo 118 / 117 40% 1 14.11.2026 -
Peter Federico Gornik Zabrze Ativo 117 / 124 40% 1 14.11.2026 -
Lindon Emërllahu Polissia Ativo 111 / 123 40% 1 07.11.2026 -
Martín Ortega Newell's Old Boys Ativo 131 / 129 40% 1 07.11.2026 -
Carlos Mora Universitatea Craiova Ativo 127 / 132 40% 3 06.11.2026 -
Santiago Toloza O'Higgins Ativo 129 / 127 40% 1 04.11.2026 -
Manuel Panaro Gimnasia La Plata Ativo 128 / 109 40% 1 04.11.2026 -
Valentín Depietri Talleres Ativo 127 / 116 40% 2 02.11.2026 -
Adrian Svanbäck BK Hacken Ativo 114 / 114 40% 1 01.11.2026 -
Paulos Abraham Hammarby Ativo 118 / 112 40% 1 01.11.2026 -
Eskil Edh AIK Ativo 112 / 115 40% 1 30.10.2026 -
Kevin Zenón Boca Juniors Ativo 115 / 132 40% 1 27.10.2026 -
Simão Rocha CFR Cluj Ativo 116 / 119 40% 1 24.10.2026 -
Adrián Sánchez Belgrano Ativo 114 / 130 40% 1 24.10.2026 -
Anzor Mekvabishvili Universitatea Craiova Ativo 122 / 126 40% 3 21.10.2026 -
Marouan Azarkan Al Nasr Ativo 101 / 120 40% 3 21.10.2026 -
Mamadou Coulibaly Al Jazira Ativo 106 / 126 40% 1 20.10.2026 -
Martin Ndzie Rapid Wien Ativo 118 / 122 40% 1 17.10.2026 -
Sayfallah Ltaief Cracovia Ativo 119 / 129 40% 1 15.10.2026 -
John Mercado Sparta Prague Ativo 112 / 132 40% 1 11.10.2026 -
Kostiantyn Vivcharenko Dynamo Kyiv Ativo 115 / 112 40% 1 10.10.2026 -
Aljoša Matko Ujpest Ativo 117 / 117 40% 1 07.10.2026 -
Svit Sešlar NK Celje Ativo 122 / 131 40% 1 10.09.2026 -
Hugo Aviander GIF Sundsvall Ativo 102 / 114 40% 1 10.09.2026 -
Román Zalazar Nueva Chicago Ativo 85 / 101 40% 1 10.09.2026 -
Juan-José Perea Zurich Ativo 115 / 123 40% 1 07.09.2026 -
Lucas Richarte Temperley Ativo 103 / 113 40% 1 31.08.2026 -
Santiago Filippini Estudiantes Ativo 85 / 102 40% 1 31.08.2026 -
Teun Gijselhart Deportivo La Coruña Ativo 96 / 117 40% 1 29.08.2026 -
Abdoulkarim Traoré Al Ain Ativo 109 / 111 40% 1 25.08.2026 -
Mbekezeli Mbokazi Chicago Fire Ativo 122 / 112 40% 1 25.08.2026 -
Santino Chavero Argentinos Juniors Ativo 90 / 92 40% 1 21.08.2026 -
Santino Bima Huracán Ativo 90 / 91 40% 1 21.08.2026 -
Cemran Dansin Orlando Pirates Ativo 125 / 99 40% 1 19.08.2026 -
Elías Báez Atlanta United FC Ativo 114 / 111 40% 1 19.08.2026 -
Luciano Minniti Tigre Ativo 82 / 96 40% 1 18.08.2026 -
Agustín Campos All Boys Ativo 95 / 86 40% 1 18.08.2026 -
Francis Nzaba Antalyaspor Ativo 103 / 102 55% 1 17.08.2026 -
Tim Drexler Red Bull Salzburg Ativo 108 / 126 40% 1 03.08.2026 -
Lucas Varaldo Central Córdoba SdE Ativo 120 / 114 40% 1 02.08.2026 -
José Arnáiz Granada Ativo 118 / 121 40% 1 01.08.2026 -